createdAt,value
2022-10-18T00:00:02.921Z,51.211948
2022-10-18T00:01:02.890Z,51.211922
2022-10-18T00:02:02.936Z,51.211929
2022-10-18T00:03:02.871Z,51.211926
2022-10-18T00:04:02.867Z,51.211761
2022-10-18T00:05:02.926Z,51.212025
2022-10-18T00:06:02.843Z,51.211906
2022-10-18T00:07:02.837Z,51.211941
2022-10-18T00:08:02.840Z,51.211899
2022-10-18T00:09:02.839Z,51.211876
2022-10-18T00:10:02.813Z,51.211830
2022-10-18T00:11:02.840Z,51.211926
2022-10-18T00:12:02.801Z,51.212009
2022-10-18T00:13:02.808Z,51.211967
2022-10-18T00:14:02.871Z,51.212166
2022-10-18T00:15:02.788Z,51.211987
2022-10-18T00:16:02.800Z,51.211929
2022-10-18T00:17:02.780Z,51.211979
2022-10-18T00:18:02.768Z,51.211945
2022-10-18T00:19:02.752Z,51.211868
2022-10-18T00:20:02.778Z,51.211960
2022-10-18T00:21:02.763Z,51.211967
2022-10-18T00:22:02.740Z,51.211975
2022-10-18T00:23:02.753Z,51.211990
2022-10-18T00:24:02.735Z,51.211975
2022-10-18T00:25:02.723Z,51.212025
2022-10-18T00:26:02.732Z,51.212021
2022-10-18T00:27:02.728Z,51.212009
2022-10-18T00:28:02.696Z,51.212009
2022-10-18T00:29:02.779Z,51.211990
2022-10-18T00:30:02.686Z,51.211990
2022-10-18T00:31:02.692Z,51.212032
2022-10-18T00:32:02.674Z,51.211956
2022-10-18T00:33:02.674Z,51.212013
2022-10-18T00:34:02.674Z,51.212109
2022-10-18T00:35:02.650Z,51.212166
2022-10-18T00:36:02.654Z,51.212185
2022-10-18T00:37:02.630Z,51.212101
2022-10-18T00:38:02.637Z,51.212082
2022-10-18T00:39:02.630Z,51.212044
2022-10-18T00:40:02.627Z,51.212009
2022-10-18T00:41:02.612Z,51.211983
2022-10-18T00:42:02.635Z,51.211960
2022-10-18T00:43:02.587Z,51.211960
2022-10-18T00:44:03.590Z,51.212025
2022-10-18T00:45:02.604Z,51.212132
2022-10-18T00:46:02.583Z,51.212147
2022-10-18T00:47:02.582Z,51.212185
2022-10-18T00:48:02.580Z,51.212151
2022-10-18T00:49:02.567Z,51.212067
2022-10-18T00:50:02.559Z,51.212059
2022-10-18T00:51:02.550Z,51.212051
2022-10-18T00:52:02.549Z,51.212063
2022-10-18T00:53:02.539Z,51.212044
2022-10-18T00:54:02.534Z,51.212086
2022-10-18T00:55:02.539Z,51.212013
2022-10-18T00:56:02.509Z,51.211983
2022-10-18T00:57:02.525Z,51.212048
2022-10-18T00:58:02.551Z,51.211994
2022-10-18T00:59:02.486Z,51.212074
2022-10-18T01:00:02.494Z,51.212097
2022-10-18T01:01:02.478Z,51.212170
2022-10-18T01:02:02.518Z,51.212318
2022-10-18T01:03:02.492Z,51.212196
2022-10-18T01:04:02.480Z,51.212158
2022-10-18T01:05:02.463Z,51.212070
2022-10-18T01:06:02.450Z,51.212059
2022-10-18T01:07:02.432Z,51.211964
2022-10-18T01:08:02.448Z,51.212051
2022-10-18T01:09:02.427Z,51.212105
2022-10-18T01:10:02.435Z,51.212124
2022-10-18T01:11:02.421Z,51.212006
2022-10-18T01:12:02.421Z,51.212002
2022-10-18T01:13:02.410Z,51.212048
2022-10-18T01:14:02.413Z,51.212173
2022-10-18T01:15:02.394Z,51.212025
2022-10-18T01:16:02.382Z,51.211983
2022-10-18T01:17:02.371Z,51.212105
2022-10-18T01:18:02.363Z,51.212193
2022-10-18T01:19:02.420Z,51.212135
2022-10-18T01:20:02.359Z,51.212086
2022-10-18T01:21:02.333Z,51.211987
2022-10-18T01:22:02.360Z,51.211979
2022-10-18T01:23:02.332Z,51.212051
2022-10-18T01:24:02.326Z,51.212029
2022-10-18T01:26:02.437Z,51.211929
2022-10-18T01:27:02.317Z,51.211979
2022-10-18T01:28:02.327Z,51.212070
2022-10-18T01:29:02.371Z,51.212013
2022-10-18T01:30:02.273Z,51.212196
2022-10-18T01:31:02.274Z,51.212261
2022-10-18T01:32:02.298Z,51.212124
2022-10-18T01:33:02.270Z,51.212044
2022-10-18T01:35:03.275Z,51.211971
2022-10-18T01:36:02.317Z,51.211914
2022-10-18T01:37:02.249Z,51.212002
2022-10-18T01:38:02.238Z,51.212120
2022-10-18T01:39:02.234Z,51.211956
2022-10-18T01:40:02.223Z,51.212032
2022-10-18T01:41:02.225Z,51.212040
2022-10-18T01:42:02.330Z,51.212002
2022-10-18T01:43:02.250Z,51.211933
2022-10-18T01:44:02.200Z,51.211979
2022-10-18T01:45:02.211Z,51.212093
2022-10-18T01:46:02.193Z,51.212055
2022-10-18T01:47:02.162Z,51.212082
2022-10-18T01:48:02.165Z,51.212040
2022-10-18T01:49:02.182Z,51.212067
2022-10-18T01:50:02.145Z,51.212078
2022-10-18T01:51:02.193Z,51.212173
2022-10-18T01:52:02.253Z,51.212036
2022-10-18T01:53:02.141Z,51.212097
2022-10-18T01:54:02.162Z,51.212112
2022-10-18T01:55:02.114Z,51.212055
2022-10-18T01:56:02.105Z,51.212067
2022-10-18T01:57:02.118Z,51.212139
2022-10-18T01:58:02.127Z,51.212086
2022-10-18T01:59:02.102Z,51.212086
2022-10-18T02:00:02.111Z,51.211926
2022-10-18T02:01:02.168Z,51.211895
2022-10-18T02:02:02.075Z,51.212070
2022-10-18T02:03:02.089Z,51.212040
2022-10-18T02:04:02.053Z,51.212116
2022-10-18T02:05:02.058Z,51.212189
2022-10-18T02:06:02.053Z,51.212040
2022-10-18T02:07:02.036Z,51.212063
2022-10-18T02:08:18.852Z,51.212063
2022-10-18T02:09:04.022Z,51.212189
2022-10-18T02:10:02.111Z,51.212105
2022-10-18T02:11:02.025Z,51.211990
2022-10-18T02:12:01.999Z,51.212063
2022-10-18T02:13:01.990Z,51.212063
2022-10-18T02:14:01.989Z,51.212051
2022-10-18T02:15:01.981Z,51.211903
2022-10-18T02:16:01.990Z,51.212059
2022-10-18T02:17:01.967Z,51.212074
2022-10-18T02:18:01.947Z,51.212128
2022-10-18T02:19:01.964Z,51.212105
2022-10-18T02:20:01.945Z,51.212048
2022-10-18T02:21:01.933Z,51.212032
2022-10-18T02:22:01.945Z,51.212055
2022-10-18T02:23:01.931Z,51.211899
2022-10-18T02:24:01.921Z,51.212013
2022-10-18T02:25:01.913Z,51.212082
2022-10-18T02:26:01.908Z,51.211884
2022-10-18T02:27:01.910Z,51.211826
2022-10-18T02:28:01.882Z,51.211952
2022-10-18T02:29:02.913Z,51.211960
2022-10-18T02:30:01.911Z,51.212021
2022-10-18T02:31:01.890Z,51.212059
2022-10-18T02:32:01.873Z,51.212105
2022-10-18T02:33:01.887Z,51.212074
2022-10-18T02:34:01.881Z,51.212067
2022-10-18T02:35:01.831Z,51.212147
2022-10-18T02:36:02.842Z,51.212082
2022-10-18T02:37:01.870Z,51.212063
2022-10-18T02:38:01.874Z,51.212036
2022-10-18T02:39:01.822Z,51.211933
2022-10-18T02:40:01.804Z,51.211983
2022-10-18T02:41:01.809Z,51.212029
2022-10-18T02:42:01.795Z,51.212070
2022-10-18T02:43:01.825Z,51.212162
2022-10-18T02:44:01.795Z,51.212158
2022-10-18T02:45:01.820Z,51.212017
2022-10-18T02:46:01.769Z,51.211929
2022-10-18T02:47:01.767Z,51.211796
2022-10-18T02:48:01.806Z,51.211910
2022-10-18T02:49:01.750Z,51.211933
2022-10-18T02:50:01.806Z,51.211975
2022-10-18T02:51:01.739Z,51.212132
2022-10-18T02:52:01.742Z,51.212185
2022-10-18T02:53:01.718Z,51.212189
2022-10-18T02:54:01.743Z,51.212170
2022-10-18T02:55:01.758Z,51.212097
2022-10-18T02:56:01.701Z,51.212086
2022-10-18T02:57:01.691Z,51.212074
2022-10-18T02:58:01.695Z,51.212227
2022-10-18T02:59:01.705Z,51.212109
2022-10-18T03:00:01.694Z,51.212189
2022-10-18T03:01:01.714Z,51.212132
2022-10-18T03:02:01.682Z,51.212234
2022-10-18T03:03:01.674Z,51.212204
2022-10-18T03:04:01.664Z,51.212105
2022-10-18T03:05:01.682Z,51.212090
2022-10-18T03:06:01.640Z,51.212177
2022-10-18T03:07:01.638Z,51.212078
2022-10-18T03:08:01.638Z,51.212006
2022-10-18T03:09:01.630Z,51.212135
2022-10-18T03:10:01.633Z,51.212189
2022-10-18T03:11:01.610Z,51.212181
2022-10-18T03:12:01.613Z,51.212280
2022-10-18T03:13:01.595Z,51.212193
2022-10-18T03:14:01.590Z,51.212173
2022-10-18T03:15:01.605Z,51.212086
2022-10-18T03:16:01.606Z,51.212025
2022-10-18T03:17:01.584Z,51.212105
2022-10-18T03:18:01.586Z,51.212082
2022-10-18T03:19:01.571Z,51.212132
2022-10-18T03:20:01.559Z,51.212234
2022-10-18T03:21:01.561Z,51.212177
2022-10-18T03:22:01.581Z,51.212021
2022-10-18T03:23:01.546Z,51.212109
2022-10-18T03:24:02.313Z,51.212154
2022-10-18T03:25:01.539Z,51.212086
2022-10-18T03:26:01.521Z,51.212101
2022-10-18T03:27:01.534Z,51.212120
2022-10-18T03:28:01.510Z,51.212189
2022-10-18T03:29:01.575Z,51.212032
2022-10-18T03:30:01.500Z,51.212154
2022-10-18T03:31:01.491Z,51.212299
2022-10-18T03:32:01.512Z,51.212162
2022-10-18T03:33:01.467Z,51.211983
2022-10-18T03:34:01.466Z,51.212170
2022-10-18T03:35:01.482Z,51.212109
2022-10-18T03:36:01.459Z,51.212097
2022-10-18T03:37:04.666Z,51.212147
2022-10-18T03:38:01.451Z,51.212280
2022-10-18T03:39:01.430Z,51.212303
2022-10-18T03:40:01.435Z,51.212212
2022-10-18T03:41:01.417Z,51.212227
2022-10-18T03:42:01.432Z,51.212196
2022-10-18T03:43:01.433Z,51.212196
2022-10-18T03:44:01.407Z,51.212223
2022-10-18T03:45:01.424Z,51.212177
2022-10-18T03:46:01.387Z,51.212139
2022-10-18T03:47:02.298Z,51.212124
2022-10-18T03:48:01.371Z,51.212139
2022-10-18T03:49:01.383Z,51.212135
2022-10-18T03:50:01.363Z,51.212120
2022-10-18T03:51:01.362Z,51.212170
2022-10-18T03:52:01.361Z,51.212147
2022-10-18T03:53:01.343Z,51.212143
2022-10-18T03:54:01.367Z,51.212093
2022-10-18T03:55:01.366Z,51.212139
2022-10-18T03:56:01.335Z,51.212128
2022-10-18T03:57:01.314Z,51.212212
2022-10-18T03:58:01.314Z,51.212189
2022-10-18T03:59:01.329Z,51.212208
2022-10-18T04:00:01.306Z,51.212257
2022-10-18T04:01:01.294Z,51.212215
2022-10-18T04:02:01.330Z,51.212166
2022-10-18T04:03:01.284Z,51.212154
2022-10-18T04:04:01.270Z,51.212147
2022-10-18T04:05:01.309Z,51.212135
2022-10-18T04:06:01.270Z,51.212204
2022-10-18T04:07:01.277Z,51.212200
2022-10-18T04:08:01.261Z,51.212162
2022-10-18T04:09:03.180Z,51.212177
2022-10-18T04:10:01.242Z,51.212143
2022-10-18T04:11:01.256Z,51.212181
2022-10-18T04:12:01.214Z,51.212219
2022-10-18T04:13:01.250Z,51.212219
2022-10-18T04:14:01.210Z,51.212242
2022-10-18T04:15:01.262Z,51.212189
2022-10-18T04:16:01.198Z,51.212120
2022-10-18T04:17:01.182Z,51.212097
2022-10-18T04:18:01.202Z,51.212280
2022-10-18T04:19:01.167Z,51.212151
2022-10-18T04:20:01.173Z,51.212112
2022-10-18T04:21:01.182Z,51.212006
2022-10-18T04:22:01.207Z,51.211975
2022-10-18T04:23:01.167Z,51.211971
2022-10-18T04:24:01.165Z,51.212029
2022-10-18T04:25:01.134Z,51.212055
2022-10-18T04:26:01.130Z,51.212025
2022-10-18T04:27:01.122Z,51.212082
2022-10-18T04:28:14.254Z,51.212055
2022-10-18T04:29:01.151Z,51.212101
2022-10-18T04:30:01.098Z,51.212063
2022-10-18T04:31:02.305Z,51.212009
2022-10-18T04:32:01.805Z,51.211914
2022-10-18T04:33:01.099Z,51.211903
2022-10-18T04:34:01.090Z,51.211952
2022-10-18T04:35:01.073Z,51.211994
2022-10-18T04:36:01.059Z,51.212006
2022-10-18T04:37:01.072Z,51.211987
2022-10-18T04:38:02.825Z,51.212055
2022-10-18T04:39:01.059Z,51.212078
2022-10-18T04:40:01.111Z,51.212055
2022-10-18T04:41:01.025Z,51.211937
2022-10-18T04:42:01.042Z,51.211807
2022-10-18T04:43:01.022Z,51.211964
2022-10-18T04:44:01.018Z,51.211971
2022-10-18T04:45:01.404Z,51.211994
2022-10-18T04:46:00.983Z,51.211998
2022-10-18T04:47:00.982Z,51.211723
2022-10-18T04:48:00.988Z,51.211739
2022-10-18T04:49:01.000Z,51.211895
2022-10-18T04:50:00.955Z,51.212025
2022-10-18T04:51:01.965Z,51.212162
2022-10-18T04:52:00.968Z,51.212223
2022-10-18T04:53:00.959Z,51.212158
2022-10-18T04:54:00.938Z,51.212009
2022-10-18T04:55:01.097Z,51.212086
2022-10-18T04:56:01.309Z,51.212055
2022-10-18T04:57:00.933Z,51.212132
2022-10-18T04:58:00.917Z,51.212040
2022-10-18T04:59:00.920Z,51.212139
2022-10-18T05:00:00.952Z,51.211861
2022-10-18T05:01:00.955Z,51.211849
2022-10-18T05:02:00.987Z,51.212006
2022-10-18T05:03:03.500Z,51.211994
2022-10-18T05:04:01.026Z,51.212124
2022-10-18T05:05:01.748Z,51.212070
2022-10-18T05:06:02.831Z,51.212128
2022-10-18T05:07:02.095Z,51.212257
2022-10-18T05:08:00.841Z,51.212147
2022-10-18T05:09:01.914Z,51.212120
2022-10-18T05:10:00.875Z,51.212044
2022-10-18T05:11:00.884Z,51.212063
2022-10-18T05:12:01.815Z,51.212154
2022-10-18T05:13:01.088Z,51.212135
2022-10-18T05:14:00.808Z,51.212006
2022-10-18T05:15:00.863Z,51.212120
2022-10-18T05:16:00.901Z,51.212048
2022-10-18T05:17:00.779Z,51.212063
2022-10-18T05:18:00.792Z,51.211998
2022-10-18T05:19:00.779Z,51.212200
2022-10-18T05:20:00.946Z,51.212170
2022-10-18T05:21:00.766Z,51.212128
2022-10-18T05:22:00.986Z,51.212132
2022-10-18T05:23:00.899Z,51.212166
2022-10-18T05:24:00.746Z,51.212158
2022-10-18T05:25:00.805Z,51.212082
2022-10-18T05:26:00.739Z,51.212059
2022-10-18T05:27:00.722Z,51.212006
2022-10-18T05:28:06.272Z,51.211948
2022-10-18T05:29:02.863Z,51.212078
2022-10-18T05:30:04.715Z,51.212017
2022-10-18T05:31:00.712Z,51.212105
2022-10-18T05:32:00.892Z,51.212101
2022-10-18T05:33:00.681Z,51.212093
2022-10-18T05:34:00.684Z,51.212196
2022-10-18T05:35:00.702Z,51.212215
2022-10-18T05:36:00.661Z,51.212158
2022-10-18T05:37:00.656Z,51.212151
2022-10-18T05:38:00.769Z,51.212090
2022-10-18T05:39:04.022Z,51.211975
2022-10-18T05:40:00.648Z,51.212040
2022-10-18T05:41:01.299Z,51.212029
2022-10-18T05:42:00.635Z,51.212051
2022-10-18T05:43:00.610Z,51.212128
2022-10-18T05:44:00.687Z,51.212086
2022-10-18T05:45:00.613Z,51.211933
2022-10-18T05:46:00.622Z,51.211926
2022-10-18T05:47:00.618Z,51.212048
2022-10-18T05:48:00.625Z,51.212044
2022-10-18T05:49:00.584Z,51.211983
2022-10-18T05:50:00.632Z,51.212143
2022-10-18T05:51:00.578Z,51.212193
2022-10-18T05:52:00.611Z,51.212162
2022-10-18T05:53:11.888Z,51.212112
2022-10-18T05:54:02.534Z,51.212086
2022-10-18T05:55:01.429Z,51.212109
2022-10-18T05:56:00.580Z,51.211967
2022-10-18T05:57:00.528Z,51.212032
2022-10-18T05:58:00.515Z,51.212101
2022-10-18T05:59:00.548Z,51.212002
2022-10-18T06:00:00.499Z,51.212017
2022-10-18T06:01:00.491Z,51.212063
2022-10-18T06:02:00.539Z,51.212067
2022-10-18T06:03:00.742Z,51.211998
2022-10-18T06:04:00.490Z,51.212173
2022-10-18T06:05:00.786Z,51.212257
2022-10-18T06:06:00.466Z,51.212269
2022-10-18T06:07:00.451Z,51.212269
2022-10-18T06:08:00.462Z,51.212181
2022-10-18T06:09:00.455Z,51.212116
2022-10-18T06:10:00.434Z,51.212101
2022-10-18T06:11:00.450Z,51.212154
2022-10-18T06:12:00.420Z,51.212223
2022-10-18T06:13:00.415Z,51.212139
2022-10-18T06:14:00.444Z,51.212471
2022-10-18T06:15:00.424Z,51.212303
2022-10-18T06:16:00.405Z,51.212276
2022-10-18T06:17:00.391Z,51.212074
2022-10-18T06:18:00.399Z,51.211868
2022-10-18T06:19:00.366Z,51.212135
2022-10-18T06:20:02.041Z,51.212101
2022-10-18T06:21:00.411Z,51.212017
2022-10-18T06:22:00.374Z,51.212227
2022-10-18T06:23:00.372Z,51.211926
2022-10-18T06:24:00.334Z,51.212120
2022-10-18T06:25:00.387Z,51.212078
2022-10-18T06:26:00.329Z,51.212166
2022-10-18T06:27:00.381Z,51.212120
2022-10-18T06:28:00.390Z,51.212177
2022-10-18T06:29:00.384Z,51.211864
2022-10-18T06:30:00.350Z,51.211994
2022-10-18T06:31:00.299Z,51.212109
2022-10-18T06:32:01.289Z,51.211994
2022-10-18T06:33:00.272Z,51.211975
2022-10-18T06:34:00.272Z,51.211994
2022-10-18T06:35:00.265Z,51.212147
2022-10-18T06:36:00.278Z,51.212128
2022-10-18T06:37:00.292Z,51.212063
2022-10-18T06:38:00.346Z,51.211952
2022-10-18T06:39:00.862Z,51.211960
2022-10-18T06:40:00.267Z,51.212059
2022-10-18T06:41:00.237Z,51.212143
2022-10-18T06:42:00.213Z,51.212170
2022-10-18T06:43:10.650Z,51.212021
2022-10-18T06:44:01.204Z,51.211983
2022-10-18T06:45:00.279Z,51.212093
2022-10-18T06:46:00.183Z,51.212090
2022-10-18T06:47:00.241Z,51.212151
2022-10-18T06:48:00.214Z,51.211990
2022-10-18T06:49:00.169Z,51.212009
2022-10-18T06:50:00.861Z,51.212021
2022-10-18T06:51:00.165Z,51.212029
2022-10-18T06:52:00.141Z,51.212109
2022-10-18T06:53:00.156Z,51.212040
2022-10-18T06:54:16.920Z,51.211983
2022-10-18T06:55:04.215Z,51.212067
2022-10-18T06:56:01.137Z,51.212055
2022-10-18T06:57:00.130Z,51.212078
2022-10-18T06:58:00.110Z,51.212170
2022-10-18T06:59:00.218Z,51.212170
2022-10-18T07:00:00.096Z,51.212040
2022-10-18T07:01:00.084Z,51.212059
2022-10-18T07:02:00.154Z,51.211987
2022-10-18T07:03:00.058Z,51.212036
2022-10-18T07:04:00.093Z,51.212063
2022-10-18T07:05:00.053Z,51.212067
2022-10-18T07:06:00.073Z,51.212261
2022-10-18T07:07:00.064Z,51.212044
2022-10-18T07:08:00.033Z,51.212166
2022-10-18T07:09:00.082Z,51.212040
2022-10-18T07:10:00.034Z,51.212040
2022-10-18T07:11:00.027Z,51.211990
2022-10-18T07:12:00.842Z,51.211994
2022-10-18T07:13:20.046Z,51.211979
2022-10-18T07:14:02.019Z,51.212021
2022-10-18T07:15:00.079Z,51.212109
2022-10-18T07:16:00.014Z,51.212036
2022-10-18T07:16:59.999Z,51.211914
2022-10-18T07:17:59.988Z,51.211933
2022-10-18T07:18:59.989Z,51.212105
2022-10-18T07:19:59.988Z,51.212139
2022-10-18T07:20:59.945Z,51.212166
2022-10-18T07:21:59.928Z,51.212044
2022-10-18T07:22:59.969Z,51.211731
2022-10-18T07:23:59.943Z,51.211788
2022-10-18T07:25:00.031Z,51.211849
2022-10-18T07:25:59.911Z,51.212116
2022-10-18T07:26:59.904Z,51.211960
2022-10-18T07:27:59.971Z,51.211723
2022-10-18T07:28:59.940Z,51.212204
2022-10-18T07:29:59.900Z,51.211922
2022-10-18T07:31:03.657Z,51.211891
2022-10-18T07:32:01.871Z,51.212032
2022-10-18T07:32:59.877Z,51.211849
2022-10-18T07:33:59.875Z,51.211994
2022-10-18T07:35:01.001Z,51.212078
2022-10-18T07:35:59.835Z,51.212067
2022-10-18T07:36:59.875Z,51.211964
2022-10-18T07:37:59.815Z,51.212120
2022-10-18T07:38:59.877Z,51.212120
2022-10-18T07:39:59.842Z,51.212032
2022-10-18T07:40:59.812Z,51.211964
2022-10-18T07:41:59.849Z,51.212021
2022-10-18T07:43:04.054Z,51.211903
2022-10-18T07:44:00.800Z,51.211906
2022-10-18T07:44:59.797Z,51.211876
2022-10-18T07:45:59.797Z,51.211948
2022-10-18T07:46:59.775Z,51.211956
2022-10-18T07:47:59.837Z,51.211937
2022-10-18T07:48:59.758Z,51.212002
2022-10-18T07:49:59.820Z,51.211998
2022-10-18T07:50:59.774Z,51.211990
2022-10-18T07:51:59.758Z,51.211891
2022-10-18T07:52:59.793Z,51.212009
2022-10-18T07:53:59.732Z,51.212093
2022-10-18T07:54:59.715Z,51.212120
2022-10-18T07:56:00.234Z,51.212120
2022-10-18T07:56:59.703Z,51.212063
2022-10-18T07:57:59.779Z,51.211983
2022-10-18T07:58:59.695Z,51.212086
2022-10-18T07:59:59.723Z,51.212036
2022-10-18T08:00:59.708Z,51.211933
2022-10-18T08:01:59.748Z,51.211849
2022-10-18T08:02:59.734Z,51.211853
2022-10-18T08:04:03.385Z,51.212051
2022-10-18T08:05:01.678Z,51.212128
2022-10-18T08:05:59.693Z,51.212032
2022-10-18T08:06:59.646Z,51.212002
2022-10-18T08:08:01.950Z,51.211983
2022-10-18T08:08:59.642Z,51.211975
2022-10-18T08:09:59.638Z,51.211998
2022-10-18T08:10:59.624Z,51.211960
2022-10-18T08:11:59.685Z,51.211975
2022-10-18T08:12:59.693Z,51.212063
2022-10-18T08:13:59.594Z,51.211838
2022-10-18T08:14:59.609Z,51.211700
2022-10-18T08:15:59.597Z,51.211819
2022-10-18T08:16:59.597Z,51.211960
2022-10-18T08:17:59.640Z,51.212219
2022-10-18T08:18:59.700Z,51.212158
2022-10-18T08:20:11.877Z,51.212139
2022-10-18T08:21:00.565Z,51.212124
2022-10-18T08:21:59.554Z,51.211929
2022-10-18T08:23:00.586Z,51.211979
2022-10-18T08:24:00.566Z,51.211952
2022-10-18T08:24:59.537Z,51.211857
2022-10-18T08:25:59.515Z,51.211842
2022-10-18T08:26:59.574Z,51.211868
2022-10-18T08:27:59.522Z,51.211948
2022-10-18T08:29:10.623Z,51.211960
2022-10-18T08:30:01.567Z,51.212006
2022-10-18T08:30:59.518Z,51.212029
2022-10-18T08:31:59.730Z,51.212055
2022-10-18T08:32:59.624Z,51.212078
2022-10-18T08:33:59.575Z,51.212147
2022-10-18T08:34:59.515Z,51.212112
2022-10-18T08:35:59.472Z,51.212166
2022-10-18T08:36:59.469Z,51.212112
2022-10-18T08:37:59.475Z,51.212212
2022-10-18T08:38:59.477Z,51.212227
2022-10-18T08:39:59.447Z,51.212204
2022-10-18T08:40:59.434Z,51.212280
2022-10-18T08:41:59.896Z,51.212189
2022-10-18T08:42:59.430Z,51.212093
2022-10-18T08:44:01.099Z,51.211998
2022-10-18T08:45:05.021Z,51.211990
2022-10-18T08:46:00.453Z,51.212143
2022-10-18T08:46:59.427Z,51.212227
2022-10-18T08:47:59.425Z,51.212238
2022-10-18T08:48:59.383Z,51.212204
2022-10-18T08:49:59.446Z,51.212173
2022-10-18T08:50:59.456Z,51.212246
2022-10-18T08:51:59.371Z,51.212223
2022-10-18T08:52:59.423Z,51.212227
2022-10-18T08:53:59.372Z,51.212082
2022-10-18T08:54:59.337Z,51.212151
2022-10-18T08:55:59.447Z,51.212173
2022-10-18T08:56:59.328Z,51.212128
2022-10-18T08:57:59.320Z,51.212227
2022-10-18T08:58:59.358Z,51.212154
2022-10-18T08:59:59.368Z,51.212189
2022-10-18T09:00:59.315Z,51.212296
2022-10-18T09:01:59.295Z,51.212303
2022-10-18T09:02:59.348Z,51.212189
2022-10-18T09:03:59.270Z,51.212074
2022-10-18T09:05:00.277Z,51.212166
2022-10-18T09:05:59.290Z,51.212070
2022-10-18T09:06:59.266Z,51.212162
2022-10-18T09:07:59.276Z,51.212204
2022-10-18T09:08:59.487Z,51.212208
2022-10-18T09:09:59.243Z,51.212227
2022-10-18T09:10:59.333Z,51.212212
2022-10-18T09:12:01.903Z,51.212177
2022-10-18T09:13:00.248Z,51.212193
2022-10-18T09:13:59.215Z,51.212193
2022-10-18T09:14:59.286Z,51.212254
2022-10-18T09:15:59.198Z,51.212215
2022-10-18T09:17:00.199Z,51.212185
2022-10-18T09:17:59.358Z,51.212250
2022-10-18T09:18:59.195Z,51.212257
2022-10-18T09:20:59.372Z,51.212036
2022-10-18T09:21:59.157Z,51.211998
2022-10-18T09:22:59.177Z,51.212147
2022-10-18T09:23:59.375Z,51.212254
2022-10-18T09:24:59.141Z,51.212257
2022-10-18T09:25:59.132Z,51.212254
2022-10-18T09:26:59.142Z,51.212273
2022-10-18T09:27:59.116Z,51.212151
2022-10-18T09:28:59.262Z,51.212204
2022-10-18T09:29:59.169Z,51.212189
2022-10-18T09:30:59.788Z,51.212196
2022-10-18T09:31:59.088Z,51.212093
2022-10-18T09:32:59.256Z,51.212090
2022-10-18T09:33:59.080Z,51.212132
2022-10-18T09:34:59.083Z,51.212143
2022-10-18T09:35:59.133Z,51.212128
2022-10-18T09:36:59.140Z,51.212105
2022-10-18T09:37:59.058Z,51.212082
2022-10-18T09:39:00.438Z,51.212147
2022-10-18T09:39:59.168Z,51.212166
2022-10-18T09:40:59.047Z,51.211933
2022-10-18T09:41:59.027Z,51.212093
2022-10-18T09:42:59.082Z,51.212151
2022-10-18T09:43:59.018Z,51.212139
2022-10-18T09:44:59.018Z,51.212231
2022-10-18T09:45:59.037Z,51.212242
2022-10-18T09:46:58.998Z,51.212215
2022-10-18T09:47:59.062Z,51.212185
2022-10-18T09:48:59.005Z,51.212212
2022-10-18T09:49:59.034Z,51.212173
2022-10-18T09:50:58.994Z,51.212196
2022-10-18T09:51:59.030Z,51.212196
2022-10-18T09:52:58.963Z,51.212212
2022-10-18T09:53:59.006Z,51.212238
2022-10-18T09:54:58.995Z,51.212311
2022-10-18T09:55:58.978Z,51.212296
2022-10-18T09:56:59.133Z,51.212269
2022-10-18T09:57:59.826Z,51.212204
2022-10-18T09:58:59.163Z,51.212193
2022-10-18T09:59:58.914Z,51.212193
2022-10-18T10:00:58.910Z,51.212147
2022-10-18T10:01:58.977Z,51.212044
2022-10-18T10:02:58.911Z,51.212215
2022-10-18T10:03:59.907Z,51.212219
2022-10-18T10:04:58.951Z,51.212151
2022-10-18T10:05:58.999Z,51.212120
2022-10-18T10:06:58.883Z,51.212082
2022-10-18T10:07:58.903Z,51.212086
2022-10-18T10:08:58.870Z,51.211929
2022-10-18T10:09:58.871Z,51.212025
2022-10-18T10:10:58.850Z,51.211971
2022-10-18T10:11:58.859Z,51.211952
2022-10-18T10:12:58.863Z,51.211967
2022-10-18T10:13:58.989Z,51.211945
2022-10-18T10:14:58.851Z,51.211948
2022-10-18T10:15:58.895Z,51.212059
2022-10-18T10:16:59.761Z,51.212105
2022-10-18T10:17:59.835Z,51.212132
2022-10-18T10:18:58.830Z,51.212097
2022-10-18T10:19:58.834Z,51.212070
2022-10-18T10:20:58.803Z,51.212025
2022-10-18T10:21:58.802Z,51.212059
2022-10-18T10:22:58.799Z,51.212002
2022-10-18T10:23:58.815Z,51.212059
2022-10-18T10:24:58.799Z,51.212025
2022-10-18T10:25:58.859Z,51.212078
2022-10-18T10:26:59.883Z,51.212097
2022-10-18T10:27:58.858Z,51.212101
2022-10-18T10:28:58.792Z,51.212112
2022-10-18T10:30:01.526Z,51.212158
2022-10-18T10:31:00.875Z,51.212189
2022-10-18T10:31:58.813Z,51.212238
2022-10-18T10:32:58.775Z,51.212254
2022-10-18T10:33:59.434Z,51.212162
2022-10-18T10:34:58.773Z,51.212257
2022-10-18T10:35:58.734Z,51.212234
2022-10-18T10:37:31.533Z,51.212189
2022-10-18T10:37:58.710Z,51.212170
2022-10-18T10:38:58.706Z,51.212212
2022-10-18T10:40:17.238Z,51.212162
2022-10-18T10:41:00.687Z,51.212208
2022-10-18T10:41:58.698Z,51.212196
2022-10-18T10:43:08.855Z,51.212303
2022-10-18T10:44:00.682Z,51.212276
2022-10-18T10:44:58.663Z,51.212284
2022-10-18T10:45:58.670Z,51.212173
2022-10-18T10:46:58.646Z,51.212196
2022-10-18T10:47:58.656Z,51.212185
2022-10-18T10:49:21.055Z,51.212212
2022-10-18T10:50:00.643Z,51.212143
2022-10-18T10:50:58.653Z,51.212170
2022-10-18T10:52:08.573Z,51.212070
2022-10-18T10:52:59.647Z,51.212177
2022-10-18T10:53:58.610Z,51.212410
2022-10-18T10:55:06.090Z,51.212193
2022-10-18T10:56:00.634Z,51.212177
2022-10-18T10:56:58.570Z,51.212292
2022-10-18T10:57:58.586Z,51.212383
2022-10-18T10:58:58.650Z,51.212433
2022-10-18T10:59:58.577Z,51.212227
2022-10-18T11:00:58.670Z,51.212185
2022-10-18T11:01:58.575Z,51.212170
2022-10-18T11:03:06.061Z,51.212219
2022-10-18T11:04:00.562Z,51.212379
2022-10-18T11:04:58.617Z,51.212360
2022-10-18T11:05:58.520Z,51.212246
2022-10-18T11:06:58.509Z,51.212009
2022-10-18T11:07:58.492Z,51.211899
2022-10-18T11:08:58.500Z,51.212143
2022-10-18T11:09:58.521Z,51.212276
2022-10-18T11:10:58.530Z,51.212509
2022-10-18T11:11:58.472Z,51.212120
2022-10-18T11:12:58.489Z,51.212349
2022-10-18T11:14:13.601Z,51.212208
2022-10-18T11:15:00.478Z,51.212200
2022-10-18T11:15:58.471Z,51.212311
2022-10-18T11:16:58.501Z,51.212273
2022-10-18T11:17:58.449Z,51.212181
2022-10-18T11:18:58.436Z,51.212090
2022-10-18T11:19:58.488Z,51.212162
2022-10-18T11:20:58.431Z,51.212151
2022-10-18T11:21:58.415Z,51.212051
2022-10-18T11:22:58.405Z,51.212078
2022-10-18T11:23:58.472Z,51.212399
2022-10-18T11:24:58.396Z,51.212254
2022-10-18T11:25:58.387Z,51.212368
2022-10-18T11:26:58.383Z,51.211960